Time,TemperatureF,DewpointF,PressureIn,WindDirection,WindDirectionDegrees,WindSpeedMPH,WindSpeedGustMPH,Humidity,HourlyPrecipIn,Conditions,Clouds,dailyrainin,SoftwareType,DateUTC
2013-06-15 07:17:00,72.9,67.1,29.95,SSE,157,2.0,3.0,82,0.00,,,0.13,meteohub,2013-06-15 12:17:00,
2013-06-15 07:18:00,72.9,67.1,29.95,SSE,157,0.0,3.0,82,0.00,,,0.13,meteohub,2013-06-15 12:18:00,
2013-06-15 07:19:00,72.9,67.1,29.95,SSE,157,0.0,3.0,82,0.00,,,0.13,meteohub,2013-06-15 12:19:00,
2013-06-15 07:21:00,72.9,67.1,29.95,SSE,157,0.0,3.0,82,0.00,,,0.13,meteohub,2013-06-15 12:21:00,
2013-06-15 07:22:00,73.0,67.3,29.95,SSE,157,0.0,3.0,82,0.00,,,0.13,meteohub,2013-06-15 12:22:00,
2013-06-15 07:27:00,73.0,67.6,29.96,SSE,157,0.0,3.0,83,0.00,,,0.13,meteohub,2013-06-15 12:27:00,
2013-06-15 07:34:00,73.0,67.6,29.96,SSE,157,3.0,3.0,83,0.00,,,0.13,meteohub,2013-06-15 12:34:00,
2013-06-15 07:39:00,73.0,67.6,29.96,SSE,157,4.0,4.0,83,0.00,,,0.13,meteohub,2013-06-15 12:39:00,
2013-06-15 07:47:00,73.2,68.2,29.96,SSE,157,0.0,5.0,84,0.00,,,0.13,meteohub,2013-06-15 12:47:00,
2013-06-15 07:53:00,73.4,68.0,29.96,SSE,157,1.0,5.0,83,0.00,,,0.13,meteohub,2013-06-15 12:53:00,
2013-06-15 07:58:00,73.6,68.2,29.96,SSE,156,2.0,5.0,83,0.00,,,0.13,meteohub,2013-06-15 12:58:00,
2013-06-15 08:04:00,73.9,68.7,29.96,SSE,156,1.0,5.0,84,0.00,,,0.13,meteohub,2013-06-15 13:04:00,
2013-06-15 08:10:00,74.1,68.9,29.96,SSE,156,1.0,5.0,84,0.00,,,0.13,meteohub,2013-06-15 13:10:00,
2013-06-15 08:15:00,74.5,68.9,29.96,SSE,156,5.0,5.0,83,0.00,,,0.13,meteohub,2013-06-15 13:15:00,
2013-06-15 08:21:00,74.7,69.1,29.96,SSE,159,2.0,6.0,83,0.00,,,0.13,meteohub,2013-06-15 13:21:00,
2013-06-15 08:26:00,75.0,69.4,29.97,SSE,164,2.0,6.0,83,0.00,,,0.13,meteohub,2013-06-15 13:26:00,
2013-06-15 08:32:00,75.4,69.8,29.97,SSE,164,3.0,6.0,83,0.00,,,0.13,meteohub,2013-06-15 13:32:00,
2013-06-15 08:37:00,75.7,70.2,29.97,SSW,202,5.0,5.0,83,0.00,,,0.13,meteohub,2013-06-15 13:37:00,
2013-06-15 08:42:00,76.1,70.2,29.97,SSW,200,4.0,6.0,82,0.00,,,0.13,meteohub,2013-06-15 13:42:00,
2013-06-15 08:48:00,76.3,70.3,29.98,SSW,193,4.0,7.0,82,0.00,,,0.13,meteohub,2013-06-15 13:48:00,
2013-06-15 08:54:00,76.5,70.5,29.98,SSW,201,4.0,7.0,82,0.00,,,0.13,meteohub,2013-06-15 13:54:00,
2013-06-15 14:54:00,90.9,75.0,29.92,WSW,250,1.0,7.0,60,0.00,,,0.13,meteohub,2013-06-15 19:54:00,
2013-06-15 15:02:00,91.2,75.4,29.92,SW,236,0.0,6.0,60,0.00,,,0.13,meteohub,2013-06-15 20:02:00,
2013-06-15 15:07:00,91.0,73.8,29.92,West,270,4.0,8.0,57,0.00,,,0.13,meteohub,2013-06-15 20:07:00,
2013-06-15 15:27:00,90.1,73.9,29.91,WSW,238,2.0,9.0,59,0.00,,,0.13,meteohub,2013-06-15 20:27:00,
2013-06-15 15:36:00,90.1,73.9,29.91,South,191,2.0,8.0,59,0.00,,,0.13,meteohub,2013-06-15 20:36:00,
2013-06-15 16:56:00,90.7,74.8,29.88,WSW,249,4.0,6.0,60,0.00,,,0.13,meteohub,2013-06-15 21:56:00,
2013-06-15 17:01:00,90.7,74.8,29.89,WSW,252,1.0,6.0,60,0.00,,,0.13,meteohub,2013-06-15 22:01:00,
2013-06-15 17:10:00,90.1,74.3,29.89,West,259,3.0,6.0,60,0.00,,,0.13,meteohub,2013-06-15 22:10:00,
2013-06-15 17:19:00,90.0,74.7,29.89,West,260,4.0,7.0,61,0.00,,,0.13,meteohub,2013-06-15 22:19:00,
2013-06-15 17:28:00,89.6,74.8,29.88,West,263,1.0,6.0,62,0.00,,,0.13,meteohub,2013-06-15 22:28:00,
2013-06-15 17:38:00,89.4,74.7,29.88,West,263,3.0,5.0,62,0.00,,,0.13,meteohub,2013-06-15 22:38:00,
2013-06-15 17:45:00,89.4,74.7,29.87,West,266,3.0,6.0,62,0.00,,,0.13,meteohub,2013-06-15 22:45:00,
2013-06-15 17:57:00,89.2,75.0,29.87,West,275,4.0,8.0,63,0.00,,,0.13,meteohub,2013-06-15 22:57:00,
2013-06-15 18:02:00,89.1,74.8,29.87,WNW,282,5.0,8.0,63,0.00,,,0.13,meteohub,2013-06-15 23:02:00,
2013-06-15 18:07:00,88.9,74.7,29.87,WNW,283,4.0,8.0,63,0.00,,,0.13,meteohub,2013-06-15 23:07:00,
2013-06-15 18:13:00,88.7,74.5,29.87,WNW,284,1.0,8.0,63,0.00,,,0.13,meteohub,2013-06-15 23:13:00,
2013-06-15 18:22:00,88.9,74.7,29.86,WNW,284,2.0,6.0,63,0.00,,,0.13,meteohub,2013-06-15 23:22:00,
2013-06-15 18:27:00,89.1,74.8,29.86,WNW,284,3.0,5.0,63,0.00,,,0.13,meteohub,2013-06-15 23:27:00,
2013-06-15 18:37:00,89.4,74.7,29.86,WNW,284,0.0,4.0,62,0.00,,,0.13,meteohub,2013-06-15 23:37:00,
2013-06-15 18:44:00,90.1,74.8,29.86,WNW,284,1.0,4.0,61,0.00,,,0.13,meteohub,2013-06-15 23:44:00,
2013-06-15 18:51:00,90.5,75.2,29.87,WNW,284,0.0,4.0,61,0.00,,,0.13,meteohub,2013-06-15 23:51:00,
2013-06-15 18:58:00,90.7,75.9,29.87,WNW,284,0.0,4.0,62,0.00,,,0.13,meteohub,2013-06-15 23:58:00,
2013-06-15 19:04:00,90.5,74.7,29.87,WNW,284,1.0,3.0,60,0.00,,,0.13,meteohub,2013-06-16 00:04:00,
2013-06-15 19:10:00,90.3,75.6,29.88,WNW,284,0.0,3.0,62,0.00,,,0.00,meteohub,2013-06-16 00:10:00,
2013-06-15 19:15:00,90.0,74.7,29.88,WNW,284,0.0,4.0,61,0.00,,,0.00,meteohub,2013-06-16 00:15:00,
2013-06-15 19:27:00,86.5,71.4,29.89,SE,136,6.0,20.0,61,0.00,,,0.00,meteohub,2013-06-16 00:27:00,
2013-06-15 19:33:00,83.8,71.8,29.89,SE,142,12.0,20.0,67,0.00,,,0.00,meteohub,2013-06-16 00:33:00,
2013-06-15 19:39:00,82.0,70.0,29.89,SE,144,6.0,20.0,67,0.00,,,0.00,meteohub,2013-06-16 00:39:00,
2013-06-15 19:47:00,81.3,69.8,29.89,SE,145,2.0,15.0,68,0.00,,,0.00,meteohub,2013-06-16 00:47:00,
2013-06-15 19:57:00,81.3,69.3,29.89,SSE,147,4.0,12.0,67,0.00,,,0.00,meteohub,2013-06-16 00:57:00,
2013-06-15 20:06:00,81.7,69.3,29.89,SE,140,4.0,8.0,66,0.00,,,0.00,meteohub,2013-06-16 01:06:00,
2013-06-15 20:12:00,81.9,68.9,29.89,SE,145,9.0,9.0,65,0.00,,,0.00,meteohub,2013-06-16 01:12:00,
2013-06-15 20:18:00,82.0,68.7,29.89,SSE,148,8.0,9.0,64,0.00,,,0.00,meteohub,2013-06-16 01:18:00,
2013-06-15 20:29:00,82.0,68.7,29.89,SE,129,6.0,9.0,64,0.00,,,0.00,meteohub,2013-06-16 01:29:00,
2013-06-15 20:36:00,81.7,69.3,29.89,SE,133,7.0,13.0,66,0.00,,,0.00,meteohub,2013-06-16 01:36:00,
2013-06-15 20:51:00,80.6,70.0,29.90,SE,146,4.0,14.0,70,0.00,,,0.00,meteohub,2013-06-16 01:51:00,
2013-06-15 20:57:00,80.2,70.0,29.90,SSE,147,4.0,14.0,71,0.00,,,0.00,meteohub,2013-06-16 01:57:00,
2013-06-15 21:14:00,79.9,70.5,29.90,SSE,149,5.0,11.0,73,0.00,,,0.00,meteohub,2013-06-16 02:14:00,
2013-06-15 21:29:00,79.7,70.3,29.91,SSE,148,5.0,12.0,73,0.00,,,0.00,meteohub,2013-06-16 02:29:00,
2013-06-15 21:35:00,79.5,70.2,29.91,ESE,107,7.0,12.0,73,0.00,,,0.00,meteohub,2013-06-16 02:35:00,
2013-06-15 21:40:00,79.3,69.4,29.91,SE,131,5.0,9.0,72,0.00,,,0.00,meteohub,2013-06-16 02:40:00,
2013-06-15 21:50:00,79.0,70.0,29.91,SE,135,8.0,11.0,74,0.00,,,0.00,meteohub,2013-06-16 02:50:00,
2013-06-15 21:56:00,78.6,69.6,29.91,SE,131,4.0,10.0,74,0.00,,,0.00,meteohub,2013-06-16 02:56:00,
2013-06-15 22:02:00,78.4,69.4,29.92,ESE,118,8.0,10.0,74,0.00,,,0.00,meteohub,2013-06-16 03:02:00,
2013-06-15 22:10:00,78.4,69.4,29.92,SE,145,2.0,10.0,74,0.00,,,0.00,meteohub,2013-06-16 03:10:00,
2013-06-15 22:19:00,78.4,69.4,29.92,SE,126,4.0,10.0,74,0.00,,,0.00,meteohub,2013-06-16 03:19:00,
2013-06-15 22:33:00,78.3,70.0,29.92,SE,126,4.0,10.0,76,0.00,,,0.00,meteohub,2013-06-16 03:33:00,
2013-06-15 22:42:00,78.1,70.0,29.93,SE,124,5.0,10.0,76,0.00,,,0.00,meteohub,2013-06-16 03:42:00,
2013-06-15 22:48:00,78.1,70.3,29.93,SE,125,1.0,8.0,77,0.00,,,0.00,meteohub,2013-06-16 03:48:00,
2013-06-15 22:57:00,78.1,70.3,29.93,SE,138,4.0,8.0,77,0.00,,,0.00,meteohub,2013-06-16 03:57:00,
2013-06-15 23:02:00,78.1,70.3,29.93,SE,131,4.0,8.0,77,0.00,,,0.00,meteohub,2013-06-16 04:02:00,
2013-06-15 23:14:00,78.1,70.3,29.93,SE,128,6.0,8.0,77,0.00,,,0.00,meteohub,2013-06-16 04:14:00,
2013-06-15 23:33:00,77.9,70.5,29.94,ESE,119,5.0,7.0,78,0.00,,,0.00,meteohub,2013-06-16 04:33:00,
2013-06-15 23:39:00,77.7,70.3,29.93,SE,140,3.0,7.0,78,0.00,,,0.00,meteohub,2013-06-16 04:39:00,
2013-06-15 23:52:00,77.7,70.3,29.93,ESE,123,2.0,6.0,78,0.00,,,0.00,meteohub,2013-06-16 04:52:00,
2013-06-15 23:58:00,77.7,70.3,29.93,SE,132,2.0,5.0,78,0.00,,,0.00,meteohub,2013-06-16 04:58:00,